sensor_id;sensor_type;location;lat;lon;timestamp;P1;durP1;ratioP1;P2;durP2;ratioP2
21181;SDS011;10749;46.296;7.524;2022-07-23T00:01:26;8.27;;;6.90;;
21181;SDS011;10749;46.296;7.524;2022-07-23T00:03:52;7.78;;;6.97;;
21181;SDS011;10749;46.296;7.524;2022-07-23T00:06:19;13.07;;;7.50;;
21181;SDS011;10749;46.296;7.524;2022-07-23T00:08:44;8.40;;;7.03;;
21181;SDS011;10749;46.296;7.524;2022-07-23T00:11:10;8.00;;;7.20;;
21181;SDS011;10749;46.296;7.524;2022-07-23T00:13:35;8.05;;;6.70;;
21181;SDS011;10749;46.296;7.524;2022-07-23T00:16:01;7.60;;;6.88;;
21181;SDS011;10749;46.296;7.524;2022-07-23T00:18:26;7.60;;;6.90;;
21181;SDS011;10749;46.296;7.524;2022-07-23T00:20:52;11.27;;;7.40;;
21181;SDS011;10749;46.296;7.524;2022-07-23T00:23:17;8.63;;;7.72;;
21181;SDS011;10749;46.296;7.524;2022-07-23T00:25:42;8.85;;;7.55;;
21181;SDS011;10749;46.296;7.524;2022-07-23T00:28:09;10.45;;;7.72;;
21181;SDS011;10749;46.296;7.524;2022-07-23T00:30:35;8.68;;;7.47;;
21181;SDS011;10749;46.296;7.524;2022-07-23T00:33:02;7.95;;;7.10;;
21181;SDS011;10749;46.296;7.524;2022-07-23T00:35:30;10.43;;;7.25;;
21181;SDS011;10749;46.296;7.524;2022-07-23T00:37:57;10.05;;;7.80;;
21181;SDS011;10749;46.296;7.524;2022-07-23T00:40:24;8.25;;;7.25;;
21181;SDS011;10749;46.296;7.524;2022-07-23T00:42:50;9.02;;;7.55;;
21181;SDS011;10749;46.296;7.524;2022-07-23T00:45:16;8.70;;;7.80;;
21181;SDS011;10749;46.296;7.524;2022-07-23T00:47:41;8.13;;;7.43;;
21181;SDS011;10749;46.296;7.524;2022-07-23T00:50:07;8.80;;;7.75;;
21181;SDS011;10749;46.296;7.524;2022-07-23T00:52:34;8.52;;;7.70;;
21181;SDS011;10749;46.296;7.524;2022-07-23T00:55:00;8.18;;;7.47;;
21181;SDS011;10749;46.296;7.524;2022-07-23T00:57:26;8.95;;;7.43;;
21181;SDS011;10749;46.296;7.524;2022-07-23T00:59:51;8.77;;;6.78;;
21181;SDS011;10749;46.296;7.524;2022-07-23T01:02:17;8.40;;;7.35;;
21181;SDS011;10749;46.296;7.524;2022-07-23T01:04:42;8.07;;;6.75;;
21181;SDS011;10749;46.296;7.524;2022-07-23T01:07:08;9.82;;;7.65;;
21181;SDS011;10749;46.296;7.524;2022-07-23T01:09:33;7.85;;;6.50;;
21181;SDS011;10749;46.296;7.524;2022-07-23T01:11:59;8.02;;;7.05;;
21181;SDS011;10749;46.296;7.524;2022-07-23T01:14:24;7.22;;;6.50;;
21181;SDS011;10749;46.296;7.524;2022-07-23T01:16:50;9.15;;;6.72;;
21181;SDS011;10749;46.296;7.524;2022-07-23T01:19:16;8.50;;;6.70;;
21181;SDS011;10749;46.296;7.524;2022-07-23T01:21:43;8.73;;;6.57;;
21181;SDS011;10749;46.296;7.524;2022-07-23T01:24:10;7.60;;;6.72;;
21181;SDS011;10749;46.296;7.524;2022-07-23T01:26:36;9.65;;;6.68;;
21181;SDS011;10749;46.296;7.524;2022-07-23T01:29:02;8.50;;;6.93;;
21181;SDS011;10749;46.296;7.524;2022-07-23T01:31:28;6.80;;;6.13;;
21181;SDS011;10749;46.296;7.524;2022-07-23T01:33:54;8.05;;;6.88;;
21181;SDS011;10749;46.296;7.524;2022-07-23T01:36:20;8.82;;;6.88;;
21181;SDS011;10749;46.296;7.524;2022-07-23T01:38:45;7.18;;;6.47;;
21181;SDS011;10749;46.296;7.524;2022-07-23T01:41:10;8.57;;;6.88;;
21181;SDS011;10749;46.296;7.524;2022-07-23T01:43:36;7.18;;;6.47;;
21181;SDS011;10749;46.296;7.524;2022-07-23T01:46:01;7.90;;;7.10;;
21181;SDS011;10749;46.296;7.524;2022-07-23T01:48:26;8.25;;;6.72;;
21181;SDS011;10749;46.296;7.524;2022-07-23T01:50:52;7.72;;;6.93;;
21181;SDS011;10749;46.296;7.524;2022-07-23T01:53:17;8.07;;;6.78;;
21181;SDS011;10749;46.296;7.524;2022-07-23T01:55:42;7.15;;;6.47;;
21181;SDS011;10749;46.296;7.524;2022-07-23T01:58:08;7.93;;;6.50;;
21181;SDS011;10749;46.296;7.524;2022-07-23T02:00:33;7.05;;;6.35;;
21181;SDS011;10749;46.296;7.524;2022-07-23T02:02:59;8.10;;;6.25;;
21181;SDS011;10749;46.296;7.524;2022-07-23T02:05:25;7.30;;;6.53;;
21181;SDS011;10749;46.296;7.524;2022-07-23T02:07:51;8.50;;;6.82;;
21181;SDS011;10749;46.296;7.524;2022-07-23T02:10:17;7.65;;;6.88;;
21181;SDS011;10749;46.296;7.524;2022-07-23T02:12:42;7.70;;;6.47;;
21181;SDS011;10749;46.296;7.524;2022-07-23T02:15:08;8.07;;;6.55;;
21181;SDS011;10749;46.296;7.524;2022-07-23T02:17:33;8.90;;;6.30;;
21181;SDS011;10749;46.296;7.524;2022-07-23T02:19:58;7.28;;;6.55;;
21181;SDS011;10749;46.296;7.524;2022-07-23T02:22:24;7.18;;;6.57;;
21181;SDS011;10749;46.296;7.524;2022-07-23T02:24:49;8.88;;;6.50;;
21181;SDS011;10749;46.296;7.524;2022-07-23T02:27:14;6.93;;;6.30;;
21181;SDS011;10749;46.296;7.524;2022-07-23T02:29:40;8.63;;;6.90;;
21181;SDS011;10749;46.296;7.524;2022-07-23T02:32:05;8.15;;;6.72;;
21181;SDS011;10749;46.296;7.524;2022-07-23T02:34:30;7.22;;;6.53;;
21181;SDS011;10749;46.296;7.524;2022-07-23T02:36:56;7.57;;;6.85;;
21181;SDS011;10749;46.296;7.524;2022-07-23T02:39:21;9.23;;;7.00;;
21181;SDS011;10749;46.296;7.524;2022-07-23T02:41:46;7.03;;;6.30;;
21181;SDS011;10749;46.296;7.524;2022-07-23T02:44:12;6.72;;;6.03;;
21181;SDS011;10749;46.296;7.524;2022-07-23T02:46:37;8.45;;;6.82;;
21181;SDS011;10749;46.296;7.524;2022-07-23T02:49:02;7.60;;;6.90;;
21181;SDS011;10749;46.296;7.524;2022-07-23T02:51:29;7.57;;;6.78;;
21181;SDS011;10749;46.296;7.524;2022-07-23T02:53:55;8.05;;;6.65;;
21181;SDS011;10749;46.296;7.524;2022-07-23T02:56:20;9.07;;;6.63;;
21181;SDS011;10749;46.296;7.524;2022-07-23T02:58:45;9.07;;;7.05;;
21181;SDS011;10749;46.296;7.524;2022-07-23T03:01:11;7.05;;;6.40;;
21181;SDS011;10749;46.296;7.524;2022-07-23T03:03:36;8.18;;;7.38;;
21181;SDS011;10749;46.296;7.524;2022-07-23T03:06:01;9.23;;;7.30;;
21181;SDS011;10749;46.296;7.524;2022-07-23T03:08:27;8.63;;;7.35;;
21181;SDS011;10749;46.296;7.524;2022-07-23T03:10:52;8.60;;;7.63;;
21181;SDS011;10749;46.296;7.524;2022-07-23T03:13:17;10.05;;;7.80;;
21181;SDS011;10749;46.296;7.524;2022-07-23T03:15:43;9.52;;;7.18;;
21181;SDS011;10749;46.296;7.524;2022-07-23T03:18:08;10.77;;;8.45;;
21181;SDS011;10749;46.296;7.524;2022-07-23T03:20:33;9.13;;;7.47;;
21181;SDS011;10749;46.296;7.524;2022-07-23T03:22:59;9.07;;;7.65;;
21181;SDS011;10749;46.296;7.524;2022-07-23T03:25:24;8.50;;;7.60;;
21181;SDS011;10749;46.296;7.524;2022-07-23T03:27:49;8.90;;;7.88;;
21181;SDS011;10749;46.296;7.524;2022-07-23T03:30:15;8.80;;;7.78;;
21181;SDS011;10749;46.296;7.524;2022-07-23T03:32:40;8.35;;;7.53;;
21181;SDS011;10749;46.296;7.524;2022-07-23T03:35:05;8.80;;;7.68;;
21181;SDS011;10749;46.296;7.524;2022-07-23T03:37:31;9.50;;;7.70;;
21181;SDS011;10749;46.296;7.524;2022-07-23T03:39:56;8.48;;;7.18;;
21181;SDS011;10749;46.296;7.524;2022-07-23T03:42:22;8.73;;;7.40;;
21181;SDS011;10749;46.296;7.524;2022-07-23T03:44:47;8.70;;;7.75;;
21181;SDS011;10749;46.296;7.524;2022-07-23T03:47:12;8.40;;;7.50;;
21181;SDS011;10749;46.296;7.524;2022-07-23T03:49:38;9.55;;;7.57;;
21181;SDS011;10749;46.296;7.524;2022-07-23T03:52:03;10.75;;;8.38;;
21181;SDS011;10749;46.296;7.524;2022-07-23T03:54:28;8.20;;;7.40;;
21181;SDS011;10749;46.296;7.524;2022-07-23T03:56:54;10.15;;;7.80;;
21181;SDS011;10749;46.296;7.524;2022-07-23T03:59:19;8.90;;;7.63;;
21181;SDS011;10749;46.296;7.524;2022-07-23T04:01:46;10.55;;;7.93;;
21181;SDS011;10749;46.296;7.524;2022-07-23T04:04:11;10.15;;;7.50;;
21181;SDS011;10749;46.296;7.524;2022-07-23T04:06:37;8.80;;;7.20;;
21181;SDS011;10749;46.296;7.524;2022-07-23T04:09:02;8.98;;;7.75;;
21181;SDS011;10749;46.296;7.524;2022-07-23T04:11:28;9.40;;;8.35;;
21181;SDS011;10749;46.296;7.524;2022-07-23T04:13:53;9.95;;;8.50;;
21181;SDS011;10749;46.296;7.524;2022-07-23T04:16:18;9.65;;;7.97;;
21181;SDS011;10749;46.296;7.524;2022-07-23T04:18:44;10.52;;;8.15;;
21181;SDS011;10749;46.296;7.524;2022-07-23T04:21:09;9.70;;;8.40;;
21181;SDS011;10749;46.296;7.524;2022-07-23T04:23:34;9.55;;;8.55;;
21181;SDS011;10749;46.296;7.524;2022-07-23T04:26:00;10.95;;;8.90;;
21181;SDS011;10749;46.296;7.524;2022-07-23T04:28:25;9.80;;;8.85;;
21181;SDS011;10749;46.296;7.524;2022-07-23T04:30:50;10.80;;;9.13;;
21181;SDS011;10749;46.296;7.524;2022-07-23T04:33:16;10.50;;;8.68;;
21181;SDS011;10749;46.296;7.524;2022-07-23T04:35:41;11.23;;;8.35;;
21181;SDS011;10749;46.296;7.524;2022-07-23T04:38:07;9.55;;;8.52;;
21181;SDS011;10749;46.296;7.524;2022-07-23T04:40:32;9.77;;;8.25;;
21181;SDS011;10749;46.296;7.524;2022-07-23T04:42:57;10.52;;;8.52;;
21181;SDS011;10749;46.296;7.524;2022-07-23T04:45:23;9.63;;;7.97;;
21181;SDS011;10749;46.296;7.524;2022-07-23T04:47:49;9.63;;;7.32;;
21181;SDS011;10749;46.296;7.524;2022-07-23T04:50:15;8.05;;;7.22;;
21181;SDS011;10749;46.296;7.524;2022-07-23T04:52:43;10.13;;;7.57;;
21181;SDS011;10749;46.296;7.524;2022-07-23T04:55:09;10.32;;;7.82;;
21181;SDS011;10749;46.296;7.524;2022-07-23T04:57:35;9.07;;;7.53;;
21181;SDS011;10749;46.296;7.524;2022-07-23T05:00:00;11.10;;;7.35;;
21181;SDS011;10749;46.296;7.524;2022-07-23T05:02:26;8.10;;;7.07;;
21181;SDS011;10749;46.296;7.524;2022-07-23T05:04:51;9.00;;;7.45;;
21181;SDS011;10749;46.296;7.524;2022-07-23T05:07:16;8.45;;;7.50;;
21181;SDS011;10749;46.296;7.524;2022-07-23T05:09:41;8.43;;;7.60;;
21181;SDS011;10749;46.296;7.524;2022-07-23T05:12:07;8.05;;;7.35;;
21181;SDS011;10749;46.296;7.524;2022-07-23T05:14:32;8.98;;;7.38;;
21181;SDS011;10749;46.296;7.524;2022-07-23T05:16:58;7.20;;;6.50;;
21181;SDS011;10749;46.296;7.524;2022-07-23T05:19:23;9.48;;;7.20;;
21181;SDS011;10749;46.296;7.524;2022-07-23T05:21:48;9.35;;;7.57;;
21181;SDS011;10749;46.296;7.524;2022-07-23T05:24:14;7.47;;;6.68;;
21181;SDS011;10749;46.296;7.524;2022-07-23T05:26:39;8.18;;;7.18;;
21181;SDS011;10749;46.296;7.524;2022-07-23T05:29:04;8.82;;;7.22;;
21181;SDS011;10749;46.296;7.524;2022-07-23T05:31:29;8.60;;;7.05;;
21181;SDS011;10749;46.296;7.524;2022-07-23T05:33:55;7.65;;;6.82;;
21181;SDS011;10749;46.296;7.524;2022-07-23T05:36:20;8.18;;;6.88;;
21181;SDS011;10749;46.296;7.524;2022-07-23T05:38:45;7.65;;;6.90;;
21181;SDS011;10749;46.296;7.524;2022-07-23T05:41:11;9.23;;;7.35;;
21181;SDS011;10749;46.296;7.524;2022-07-23T05:43:36;7.38;;;6.68;;
21181;SDS011;10749;46.296;7.524;2022-07-23T05:46:01;7.85;;;7.03;;
21181;SDS011;10749;46.296;7.524;2022-07-23T05:48:27;7.60;;;6.70;;
21181;SDS011;10749;46.296;7.524;2022-07-23T05:50:52;7.72;;;7.03;;
21181;SDS011;10749;46.296;7.524;2022-07-23T05:53:18;8.10;;;7.30;;
21181;SDS011;10749;46.296;7.524;2022-07-23T05:55:43;7.55;;;6.72;;
21181;SDS011;10749;46.296;7.524;2022-07-23T05:58:08;8.38;;;7.22;;
21181;SDS011;10749;46.296;7.524;2022-07-23T06:00:34;8.65;;;6.80;;
21181;SDS011;10749;46.296;7.524;2022-07-23T06:02:59;7.57;;;6.70;;
21181;SDS011;10749;46.296;7.524;2022-07-23T06:05:24;9.63;;;7.20;;
21181;SDS011;10749;46.296;7.524;2022-07-23T06:07:50;9.27;;;7.00;;
21181;SDS011;10749;46.296;7.524;2022-07-23T06:10:15;8.45;;;7.00;;
21181;SDS011;10749;46.296;7.524;2022-07-23T06:12:41;8.07;;;7.28;;
21181;SDS011;10749;46.296;7.524;2022-07-23T06:15:06;9.23;;;7.40;;
21181;SDS011;10749;46.296;7.524;2022-07-23T06:17:32;8.93;;;7.50;;
21181;SDS011;10749;46.296;7.524;2022-07-23T06:19:58;8.25;;;7.45;;
21181;SDS011;10749;46.296;7.524;2022-07-23T06:22:23;8.60;;;7.70;;
21181;SDS011;10749;46.296;7.524;2022-07-23T06:24:49;8.63;;;7.72;;
21181;SDS011;10749;46.296;7.524;2022-07-23T06:27:15;8.77;;;7.88;;
21181;SDS011;10749;46.296;7.524;2022-07-23T06:29:41;8.82;;;7.78;;
21181;SDS011;10749;46.296;7.524;2022-07-23T06:32:07;9.35;;;7.82;;
21181;SDS011;10749;46.296;7.524;2022-07-23T06:34:33;8.30;;;7.50;;
21181;SDS011;10749;46.296;7.524;2022-07-23T06:36:59;8.77;;;7.88;;
21181;SDS011;10749;46.296;7.524;2022-07-23T06:39:25;8.27;;;7.47;;
21181;SDS011;10749;46.296;7.524;2022-07-23T06:41:50;8.65;;;7.75;;
21181;SDS011;10749;46.296;7.524;2022-07-23T06:44:16;8.65;;;7.82;;
21181;SDS011;10749;46.296;7.524;2022-07-23T06:46:41;8.70;;;7.75;;
21181;SDS011;10749;46.296;7.524;2022-07-23T06:49:07;8.93;;;8.13;;
21181;SDS011;10749;46.296;7.524;2022-07-23T06:51:32;8.70;;;7.80;;
21181;SDS011;10749;46.296;7.524;2022-07-23T06:53:57;10.10;;;8.30;;
21181;SDS011;10749;46.296;7.524;2022-07-23T06:56:23;8.40;;;7.60;;
21181;SDS011;10749;46.296;7.524;2022-07-23T06:58:48;9.23;;;8.20;;
21181;SDS011;10749;46.296;7.524;2022-07-23T07:01:14;11.07;;;8.57;;
21181;SDS011;10749;46.296;7.524;2022-07-23T07:03:39;9.25;;;8.23;;
21181;SDS011;10749;46.296;7.524;2022-07-23T07:06:04;8.85;;;7.45;;
21181;SDS011;10749;46.296;7.524;2022-07-23T07:08:30;8.73;;;7.20;;
21181;SDS011;10749;46.296;7.524;2022-07-23T07:10:55;8.15;;;7.18;;
21181;SDS011;10749;46.296;7.524;2022-07-23T07:13:20;9.23;;;7.38;;
21181;SDS011;10749;46.296;7.524;2022-07-23T07:15:46;7.75;;;6.95;;
21181;SDS011;10749;46.296;7.524;2022-07-23T07:18:11;7.43;;;6.75;;
21181;SDS011;10749;46.296;7.524;2022-07-23T07:20:36;7.97;;;6.82;;
21181;SDS011;10749;46.296;7.524;2022-07-23T07:23:01;8.38;;;7.40;;
21181;SDS011;10749;46.296;7.524;2022-07-23T07:25:27;8.93;;;7.30;;
21181;SDS011;10749;46.296;7.524;2022-07-23T07:27:52;7.97;;;7.28;;
21181;SDS011;10749;46.296;7.524;2022-07-23T07:30:17;8.52;;;7.53;;
21181;SDS011;10749;46.296;7.524;2022-07-23T07:32:43;8.00;;;7.22;;
21181;SDS011;10749;46.296;7.524;2022-07-23T07:35:08;9.15;;;7.68;;
21181;SDS011;10749;46.296;7.524;2022-07-23T07:37:34;8.38;;;7.32;;
21181;SDS011;10749;46.296;7.524;2022-07-23T07:39:59;7.95;;;7.15;;
21181;SDS011;10749;46.296;7.524;2022-07-23T07:42:25;7.53;;;6.85;;
21181;SDS011;10749;46.296;7.524;2022-07-23T07:44:50;9.20;;;7.55;;
21181;SDS011;10749;46.296;7.524;2022-07-23T07:47:15;8.43;;;6.88;;
21181;SDS011;10749;46.296;7.524;2022-07-23T07:49:41;7.78;;;7.07;;
21181;SDS011;10749;46.296;7.524;2022-07-23T07:52:07;9.38;;;7.45;;
21181;SDS011;10749;46.296;7.524;2022-07-23T07:54:33;8.93;;;7.57;;
21181;SDS011;10749;46.296;7.524;2022-07-23T07:56:58;9.30;;;7.57;;
21181;SDS011;10749;46.296;7.524;2022-07-23T07:59:24;8.98;;;7.05;;
21181;SDS011;10749;46.296;7.524;2022-07-23T08:01:50;8.27;;;7.50;;
21181;SDS011;10749;46.296;7.524;2022-07-23T08:04:15;8.40;;;7.45;;
21181;SDS011;10749;46.296;7.524;2022-07-23T08:06:40;8.52;;;6.88;;
21181;SDS011;10749;46.296;7.524;2022-07-23T08:09:06;9.57;;;7.40;;
21181;SDS011;10749;46.296;7.524;2022-07-23T08:11:31;8.90;;;7.68;;
21181;SDS011;10749;46.296;7.524;2022-07-23T08:13:56;7.38;;;6.68;;
21181;SDS011;10749;46.296;7.524;2022-07-23T08:16:22;8.55;;;7.65;;
21181;SDS011;10749;46.296;7.524;2022-07-23T08:18:47;8.15;;;6.93;;
21181;SDS011;10749;46.296;7.524;2022-07-23T08:21:12;7.93;;;7.13;;
21181;SDS011;10749;46.296;7.524;2022-07-23T08:23:38;6.70;;;6.03;;
21181;SDS011;10749;46.296;7.524;2022-07-23T08:26:03;7.55;;;6.78;;
21181;SDS011;10749;46.296;7.524;2022-07-23T08:28:28;7.40;;;6.70;;
21181;SDS011;10749;46.296;7.524;2022-07-23T08:30:54;6.95;;;6.25;;
21181;SDS011;10749;46.296;7.524;2022-07-23T08:33:19;7.45;;;6.57;;
21181;SDS011;10749;46.296;7.524;2022-07-23T08:35:46;7.65;;;6.95;;
21181;SDS011;10749;46.296;7.524;2022-07-23T08:38:13;8.40;;;6.88;;
21181;SDS011;10749;46.296;7.524;2022-07-23T08:40:41;7.78;;;6.97;;
21181;SDS011;10749;46.296;7.524;2022-07-23T08:43:11;7.53;;;6.68;;
21181;SDS011;10749;46.296;7.524;2022-07-23T08:45:39;7.32;;;6.63;;
21181;SDS011;10749;46.296;7.524;2022-07-23T08:48:08;7.90;;;6.57;;
21181;SDS011;10749;46.296;7.524;2022-07-23T08:50:37;8.23;;;7.22;;
21181;SDS011;10749;46.296;7.524;2022-07-23T08:53:08;8.13;;;7.32;;
21181;SDS011;10749;46.296;7.524;2022-07-23T08:55:33;7.45;;;6.85;;
21181;SDS011;10749;46.296;7.524;2022-07-23T08:57:59;7.90;;;7.20;;
21181;SDS011;10749;46.296;7.524;2022-07-23T09:00:24;8.02;;;7.20;;
21181;SDS011;10749;46.296;7.524;2022-07-23T09:02:50;8.05;;;7.20;;
21181;SDS011;10749;46.296;7.524;2022-07-23T09:05:16;7.40;;;6.70;;
21181;SDS011;10749;46.296;7.524;2022-07-23T09:10:29;8.98;;;7.03;;
21181;SDS011;10749;46.296;7.524;2022-07-23T09:12:54;7.47;;;6.78;;
21181;SDS011;10749;46.296;7.524;2022-07-23T09:15:20;7.40;;;6.72;;
21181;SDS011;10749;46.296;7.524;2022-07-23T09:17:45;7.53;;;6.82;;
21181;SDS011;10749;46.296;7.524;2022-07-23T09:20:12;7.95;;;7.25;;
21181;SDS011;10749;46.296;7.524;2022-07-23T09:22:40;7.65;;;6.88;;
21181;SDS011;10749;46.296;7.524;2022-07-23T09:25:11;7.10;;;6.43;;
21181;SDS011;10749;46.296;7.524;2022-07-23T09:30:10;7.20;;;6.60;;
21181;SDS011;10749;46.296;7.524;2022-07-23T09:32:35;7.75;;;6.90;;
21181;SDS011;10749;46.296;7.524;2022-07-23T09:35:02;7.70;;;7.00;;
21181;SDS011;10749;46.296;7.524;2022-07-23T09:37:27;8.27;;;7.47;;
21181;SDS011;10749;46.296;7.524;2022-07-23T09:39:52;8.48;;;7.68;;
21181;SDS011;10749;46.296;7.524;2022-07-23T09:42:32;9.07;;;8.18;;
21181;SDS011;10749;46.296;7.524;2022-07-23T09:44:58;9.38;;;8.40;;
21181;SDS011;10749;46.296;7.524;2022-07-23T09:47:24;8.68;;;7.78;;
21181;SDS011;10749;46.296;7.524;2022-07-23T09:52:34;9.00;;;8.10;;
21181;SDS011;10749;46.296;7.524;2022-07-23T09:55:05;8.75;;;7.95;;
21181;SDS011;10749;46.296;7.524;2022-07-23T09:57:31;8.27;;;7.47;;
21181;SDS011;10749;46.296;7.524;2022-07-23T09:59:58;8.77;;;7.97;;
21181;SDS011;10749;46.296;7.524;2022-07-23T10:02:25;8.05;;;7.25;;
21181;SDS011;10749;46.296;7.524;2022-07-23T10:04:53;8.38;;;7.25;;
21181;SDS011;10749;46.296;7.524;2022-07-23T10:07:21;7.97;;;7.22;;
21181;SDS011;10749;46.296;7.524;2022-07-23T10:09:48;8.82;;;8.00;;
21181;SDS011;10749;46.296;7.524;2022-07-23T10:12:17;8.23;;;6.90;;
21181;SDS011;10749;46.296;7.524;2022-07-23T10:14:46;8.68;;;6.93;;
21181;SDS011;10749;46.296;7.524;2022-07-23T10:17:12;8.85;;;8.05;;
21181;SDS011;10749;46.296;7.524;2022-07-23T10:19:38;7.80;;;7.10;;
21181;SDS011;10749;46.296;7.524;2022-07-23T10:22:14;8.00;;;6.78;;
21181;SDS011;10749;46.296;7.524;2022-07-23T10:30:18;8.55;;;7.75;;
21181;SDS011;10749;46.296;7.524;2022-07-23T10:39:13;10.23;;;6.60;;
21181;SDS011;10749;46.296;7.524;2022-07-23T10:41:36;7.38;;;6.72;;
21181;SDS011;10749;46.296;7.524;2022-07-23T10:46:53;8.25;;;6.65;;
21181;SDS011;10749;46.296;7.524;2022-07-23T10:49:38;6.95;;;6.22;;
21181;SDS011;10749;46.296;7.524;2022-07-23T10:54:39;6.93;;;6.32;;
21181;SDS011;10749;46.296;7.524;2022-07-23T10:57:06;7.95;;;7.15;;
21181;SDS011;10749;46.296;7.524;2022-07-23T11:02:37;7.10;;;6.40;;
21181;SDS011;10749;46.296;7.524;2022-07-23T11:05:05;8.05;;;7.22;;
21181;SDS011;10749;46.296;7.524;2022-07-23T11:07:32;8.48;;;6.80;;
21181;SDS011;10749;46.296;7.524;2022-07-23T11:09:58;6.95;;;6.28;;
21181;SDS011;10749;46.296;7.524;2022-07-23T11:17:39;7.53;;;6.70;;
21181;SDS011;10749;46.296;7.524;2022-07-23T11:20:24;7.65;;;6.78;;
21181;SDS011;10749;46.296;7.524;2022-07-23T11:22:58;6.78;;;5.65;;
21181;SDS011;10749;46.296;7.524;2022-07-23T11:27:55;6.70;;;6.10;;
21181;SDS011;10749;46.296;7.524;2022-07-23T11:30:41;7.15;;;6.45;;
21181;SDS011;10749;46.296;7.524;2022-07-23T11:35:33;6.50;;;5.88;;
21181;SDS011;10749;46.296;7.524;2022-07-23T11:38:13;7.15;;;5.47;;
21181;SDS011;10749;46.296;7.524;2022-07-23T11:40:40;6.82;;;6.03;;
21181;SDS011;10749;46.296;7.524;2022-07-23T11:43:07;5.70;;;5.20;;
21181;SDS011;10749;46.296;7.524;2022-07-23T11:45:34;6.50;;;5.32;;
21181;SDS011;10749;46.296;7.524;2022-07-23T11:48:06;7.93;;;5.20;;
21181;SDS011;10749;46.296;7.524;2022-07-23T11:50:33;6.13;;;5.53;;
21181;SDS011;10749;46.296;7.524;2022-07-23T11:52:59;5.97;;;5.25;;
21181;SDS011;10749;46.296;7.524;2022-07-23T11:55:24;5.25;;;4.75;;
21181;SDS011;10749;46.296;7.524;2022-07-23T11:57:51;5.95;;;5.30;;
21181;SDS011;10749;46.296;7.524;2022-07-23T12:00:19;5.78;;;5.18;;
21181;SDS011;10749;46.296;7.524;2022-07-23T12:02:47;7.60;;;5.20;;
21181;SDS011;10749;46.296;7.524;2022-07-23T12:05:15;5.80;;;5.20;;
21181;SDS011;10749;46.296;7.524;2022-07-23T12:07:43;5.90;;;5.28;;
21181;SDS011;10749;46.296;7.524;2022-07-23T12:10:14;6.55;;;5.07;;
21181;SDS011;10749;46.296;7.524;2022-07-23T12:12:41;6.05;;;5.47;;
21181;SDS011;10749;46.296;7.524;2022-07-23T12:15:09;6.25;;;5.40;;
21181;SDS011;10749;46.296;7.524;2022-07-23T12:17:37;5.97;;;5.38;;
21181;SDS011;10749;46.296;7.524;2022-07-23T12:20:05;8.18;;;5.25;;
21181;SDS011;10749;46.296;7.524;2022-07-23T12:22:34;6.70;;;6.10;;
21181;SDS011;10749;46.296;7.524;2022-07-23T12:25:06;7.13;;;5.53;;
21181;SDS011;10749;46.296;7.524;2022-07-23T12:27:40;5.90;;;5.40;;
21181;SDS011;10749;46.296;7.524;2022-07-23T12:32:49;7.13;;;5.95;;
21181;SDS011;10749;46.296;7.524;2022-07-23T12:35:16;6.72;;;5.80;;
21181;SDS011;10749;46.296;7.524;2022-07-23T12:37:42;7.18;;;5.82;;
21181;SDS011;10749;46.296;7.524;2022-07-23T12:40:22;6.30;;;5.65;;
21181;SDS011;10749;46.296;7.524;2022-07-23T12:42:52;8.85;;;5.90;;
21181;SDS011;10749;46.296;7.524;2022-07-23T12:45:20;7.00;;;6.30;;
21181;SDS011;10749;46.296;7.524;2022-07-23T12:50:47;6.90;;;6.25;;
21181;SDS011;10749;46.296;7.524;2022-07-23T12:53:19;7.15;;;6.45;;
21181;SDS011;10749;46.296;7.524;2022-07-23T12:55:44;9.30;;;6.13;;
21181;SDS011;10749;46.296;7.524;2022-07-23T12:58:15;7.75;;;6.70;;
21181;SDS011;10749;46.296;7.524;2022-07-23T13:00:49;10.80;;;6.55;;
21181;SDS011;10749;46.296;7.524;2022-07-23T13:03:23;6.95;;;6.15;;
21181;SDS011;10749;46.296;7.524;2022-07-23T13:05:50;6.43;;;5.82;;
21181;SDS011;10749;46.296;7.524;2022-07-23T13:08:15;7.38;;;6.07;;
21181;SDS011;10749;46.296;7.524;2022-07-23T13:10:40;6.63;;;6.03;;
21181;SDS011;10749;46.296;7.524;2022-07-23T13:13:09;7.88;;;6.40;;
21181;SDS011;10749;46.296;7.524;2022-07-23T13:15:35;6.97;;;5.90;;
21181;SDS011;10749;46.296;7.524;2022-07-23T13:18:00;10.05;;;6.68;;
21181;SDS011;10749;46.296;7.524;2022-07-23T13:20:26;7.80;;;6.97;;
21181;SDS011;10749;46.296;7.524;2022-07-23T13:22:51;6.75;;;6.10;;
21181;SDS011;10749;46.296;7.524;2022-07-23T13:25:16;8.38;;;6.25;;
21181;SDS011;10749;46.296;7.524;2022-07-23T13:27:42;7.22;;;6.47;;
21181;SDS011;10749;46.296;7.524;2022-07-23T13:30:07;10.63;;;6.40;;
21181;SDS011;10749;46.296;7.524;2022-07-23T13:32:35;8.07;;;6.05;;
21181;SDS011;10749;46.296;7.524;2022-07-23T13:35:01;7.20;;;6.47;;
21181;SDS011;10749;46.296;7.524;2022-07-23T13:37:26;6.68;;;5.85;;
21181;SDS011;10749;46.296;7.524;2022-07-23T13:39:51;8.68;;;6.25;;
21181;SDS011;10749;46.296;7.524;2022-07-23T13:42:17;7.75;;;6.43;;
21181;SDS011;10749;46.296;7.524;2022-07-23T13:44:42;7.00;;;6.30;;
21181;SDS011;10749;46.296;7.524;2022-07-23T13:47:07;10.07;;;6.20;;
21181;SDS011;10749;46.296;7.524;2022-07-23T13:49:33;7.10;;;6.40;;
21181;SDS011;10749;46.296;7.524;2022-07-23T13:51:58;7.93;;;6.47;;
21181;SDS011;10749;46.296;7.524;2022-07-23T13:54:23;7.95;;;6.85;;
21181;SDS011;10749;46.296;7.524;2022-07-23T13:56:49;9.20;;;7.07;;
21181;SDS011;10749;46.296;7.524;2022-07-23T13:59:14;6.97;;;6.15;;
21181;SDS011;10749;46.296;7.524;2022-07-23T14:01:39;6.65;;;6.05;;
21181;SDS011;10749;46.296;7.524;2022-07-23T14:04:05;7.57;;;6.53;;
21181;SDS011;10749;46.296;7.524;2022-07-23T14:06:30;9.48;;;6.50;;
21181;SDS011;10749;46.296;7.524;2022-07-23T14:08:55;8.50;;;6.40;;
21181;SDS011;10749;46.296;7.524;2022-07-23T14:11:20;7.40;;;6.45;;
21181;SDS011;10749;46.296;7.524;2022-07-23T14:13:46;7.70;;;6.38;;
21181;SDS011;10749;46.296;7.524;2022-07-23T14:16:11;8.10;;;6.63;;
21181;SDS011;10749;46.296;7.524;2022-07-23T14:18:36;6.97;;;6.30;;
21181;SDS011;10749;46.296;7.524;2022-07-23T14:21:02;7.28;;;6.57;;
21181;SDS011;10749;46.296;7.524;2022-07-23T14:23:27;7.38;;;6.68;;
21181;SDS011;10749;46.296;7.524;2022-07-23T14:25:53;7.45;;;6.65;;
21181;SDS011;10749;46.296;7.524;2022-07-23T14:28:18;8.40;;;6.57;;
21181;SDS011;10749;46.296;7.524;2022-07-23T14:30:44;11.55;;;6.82;;
21181;SDS011;10749;46.296;7.524;2022-07-23T14:33:09;10.45;;;6.90;;
21181;SDS011;10749;46.296;7.524;2022-07-23T14:35:34;8.20;;;6.90;;
21181;SDS011;10749;46.296;7.524;2022-07-23T14:38:00;7.63;;;6.78;;
21181;SDS011;10749;46.296;7.524;2022-07-23T14:40:25;9.48;;;7.10;;
21181;SDS011;10749;46.296;7.524;2022-07-23T14:42:50;7.55;;;6.60;;
21181;SDS011;10749;46.296;7.524;2022-07-23T14:45:16;8.23;;;6.85;;
21181;SDS011;10749;46.296;7.524;2022-07-23T14:47:41;9.98;;;6.85;;
21181;SDS011;10749;46.296;7.524;2022-07-23T14:50:07;7.38;;;6.53;;
21181;SDS011;10749;46.296;7.524;2022-07-23T14:52:33;7.10;;;6.40;;
21181;SDS011;10749;46.296;7.524;2022-07-23T14:54:58;8.10;;;7.15;;
21181;SDS011;10749;46.296;7.524;2022-07-23T14:57:23;7.70;;;6.90;;
21181;SDS011;10749;46.296;7.524;2022-07-23T14:59:49;8.65;;;7.30;;
21181;SDS011;10749;46.296;7.524;2022-07-23T15:02:14;9.10;;;7.40;;
21181;SDS011;10749;46.296;7.524;2022-07-23T15:04:39;11.20;;;7.13;;
21181;SDS011;10749;46.296;7.524;2022-07-23T15:07:05;7.50;;;6.80;;
21181;SDS011;10749;46.296;7.524;2022-07-23T15:09:30;9.73;;;6.78;;
21181;SDS011;10749;46.296;7.524;2022-07-23T15:11:56;10.15;;;7.95;;
21181;SDS011;10749;46.296;7.524;2022-07-23T15:14:21;8.07;;;7.20;;
21181;SDS011;10749;46.296;7.524;2022-07-23T15:16:47;7.50;;;6.43;;
21181;SDS011;10749;46.296;7.524;2022-07-23T15:19:12;9.73;;;7.28;;
21181;SDS011;10749;46.296;7.524;2022-07-23T15:21:38;8.38;;;7.07;;
21181;SDS011;10749;46.296;7.524;2022-07-23T15:24:03;8.02;;;7.22;;